createdAt,value
2019-03-30T00:02:09.011Z,80.50
2019-03-30T00:04:37.518Z,81.00
2019-03-30T00:07:06.037Z,82.20
2019-03-30T00:09:34.489Z,82.60
2019-03-30T00:12:03.114Z,82.20
2019-03-30T00:14:31.589Z,81.30
2019-03-30T00:17:00.152Z,81.30
2019-03-30T00:19:34.711Z,81.80
2019-03-30T00:21:58.784Z,82.00
2019-03-30T00:24:27.237Z,82.40
2019-03-30T00:26:55.663Z,81.80
2019-03-30T00:29:24.111Z,82.20
2019-03-30T00:31:52.569Z,82.30
2019-03-30T00:34:21.097Z,82.20
2019-03-30T00:36:49.534Z,81.90
2019-03-30T00:39:17.966Z,81.50
2019-03-30T00:41:46.412Z,82.50
2019-03-30T00:44:14.918Z,82.90
2019-03-30T00:46:43.389Z,82.70
2019-03-30T00:49:11.838Z,82.90
2019-03-30T00:51:40.285Z,83.20
2019-03-30T00:54:08.730Z,82.70
2019-03-30T00:56:37.184Z,82.90
2019-03-30T00:59:05.653Z,83.40
2019-03-30T01:01:34.085Z,83.50
2019-03-30T01:04:02.523Z,82.00
2019-03-30T01:06:30.971Z,82.40
2019-03-30T01:08:59.409Z,82.50
2019-03-30T01:11:27.849Z,83.20
2019-03-30T01:13:56.294Z,83.20
2019-03-30T01:16:24.813Z,83.20
2019-03-30T01:18:53.281Z,83.90
2019-03-30T01:21:21.729Z,83.30
2019-03-30T01:23:50.162Z,82.10
2019-03-30T01:26:18.598Z,82.80
2019-03-30T01:28:47.201Z,82.40
2019-03-30T01:31:15.726Z,83.10
2019-03-30T01:33:44.187Z,81.90
2019-03-30T01:36:12.698Z,83.20
2019-03-30T01:38:41.134Z,83.50
2019-03-30T01:41:09.560Z,83.70
2019-03-30T01:43:38.001Z,83.50
2019-03-30T01:46:06.429Z,83.00
2019-03-30T01:48:34.873Z,83.20
2019-03-30T01:51:03.328Z,83.30
2019-03-30T01:53:31.770Z,83.80
2019-03-30T01:56:00.220Z,84.00
2019-03-30T01:58:28.642Z,83.80
2019-03-30T02:00:57.104Z,84.20
2019-03-30T02:03:25.513Z,84.50
2019-03-30T02:05:53.977Z,84.30
2019-03-30T02:08:22.430Z,84.00
2019-03-30T02:10:50.851Z,83.90
2019-03-30T02:13:19.317Z,84.30
2019-03-30T02:15:47.810Z,83.90
2019-03-30T02:18:16.286Z,83.60
2019-03-30T02:20:46.452Z,84.00
2019-03-30T02:23:15.143Z,83.90
2019-03-30T02:25:43.661Z,84.30
2019-03-30T02:28:12.228Z,84.40
2019-03-30T02:30:40.838Z,84.60
2019-03-30T02:33:09.545Z,84.40
2019-03-30T02:35:38.065Z,84.00
2019-03-30T02:38:06.518Z,84.20
2019-03-30T02:40:34.936Z,84.40
2019-03-30T02:43:03.377Z,84.90
2019-03-30T02:45:31.807Z,85.00
2019-03-30T02:48:00.234Z,85.30
2019-03-30T02:50:28.696Z,84.40
2019-03-30T02:52:57.196Z,84.10
2019-03-30T02:55:25.704Z,84.40
2019-03-30T02:57:54.153Z,84.90
2019-03-30T03:00:22.658Z,84.80
2019-03-30T03:02:51.122Z,85.50
2019-03-30T03:05:21.705Z,85.90
2019-03-30T03:07:50.131Z,86.10
2019-03-30T03:10:19.119Z,86.10
2019-03-30T03:12:47.632Z,86.10
2019-03-30T03:15:16.231Z,86.50
2019-03-30T03:17:44.747Z,86.60
2019-03-30T03:20:13.533Z,86.50
2019-03-30T03:22:41.973Z,86.30
2019-03-30T03:25:10.478Z,86.40
2019-03-30T03:27:38.939Z,86.20
2019-03-30T03:30:08.216Z,86.10
2019-03-30T03:32:36.683Z,85.80
2019-03-30T03:35:06.363Z,86.50
2019-03-30T03:37:44.622Z,86.50
2019-03-30T03:40:07.853Z,86.60
2019-03-30T03:42:36.309Z,87.80
2019-03-30T03:45:07.127Z,87.60
2019-03-30T03:47:35.653Z,88.50
2019-03-30T03:50:04.783Z,87.00
2019-03-30T03:52:33.401Z,86.80
2019-03-30T03:55:02.548Z,86.40
2019-03-30T03:57:33.871Z,86.50
2019-03-30T04:00:03.939Z,86.30
2019-03-30T04:02:35.797Z,86.60
2019-03-30T04:05:06.067Z,87.60
2019-03-30T04:07:36.728Z,88.10
2019-03-30T04:10:05.526Z,88.30
2019-03-30T04:12:36.775Z,88.50
2019-03-30T04:15:07.691Z,89.30
2019-03-30T04:17:36.375Z,88.70
2019-03-30T04:20:06.367Z,88.90
2019-03-30T04:22:34.790Z,88.90
2019-03-30T04:25:03.988Z,88.70
2019-03-30T04:27:32.507Z,88.40
2019-03-30T04:30:00.966Z,88.30
2019-03-30T04:32:29.406Z,87.80
2019-03-30T04:34:57.881Z,87.90
2019-03-30T04:37:26.369Z,87.50
2019-03-30T04:39:54.815Z,88.00
2019-03-30T04:42:23.259Z,87.90
2019-03-30T04:44:51.787Z,87.70
2019-03-30T04:47:20.238Z,88.00
2019-03-30T04:49:48.685Z,88.10
2019-03-30T04:52:17.114Z,88.60
2019-03-30T04:54:45.557Z,88.80
2019-03-30T04:57:14.006Z,89.10
2019-03-30T04:59:42.461Z,88.80
2019-03-30T05:02:10.878Z,88.60
2019-03-30T05:04:39.322Z,88.70
2019-03-30T05:07:07.770Z,89.00
2019-03-30T05:09:36.216Z,89.20
2019-03-30T05:12:04.681Z,89.60
2019-03-30T05:14:33.214Z,89.50
2019-03-30T05:17:01.717Z,89.90
2019-03-30T05:19:30.155Z,90.20
2019-03-30T05:22:11.405Z,90.30
2019-03-30T05:24:28.740Z,90.10
2019-03-30T05:26:58.477Z,90.20
2019-03-30T05:29:27.565Z,90.30
2019-03-30T05:31:56.013Z,90.40
2019-03-30T05:34:24.457Z,90.50
2019-03-30T05:36:52.884Z,90.50
2019-03-30T05:39:21.354Z,90.60
2019-03-30T05:41:49.837Z,90.60
2019-03-30T05:44:18.297Z,90.60
2019-03-30T05:46:46.738Z,90.70
2019-03-30T05:49:15.197Z,90.90
2019-03-30T05:51:43.610Z,91.00
2019-03-30T05:54:12.057Z,91.20
2019-03-30T05:56:40.512Z,91.30
2019-03-30T05:59:08.957Z,91.40
2019-03-30T06:01:37.403Z,91.60
2019-03-30T06:04:05.926Z,91.70
2019-03-30T06:06:34.427Z,91.80
2019-03-30T06:09:03.058Z,91.90
2019-03-30T06:11:31.518Z,91.90
2019-03-30T06:13:59.956Z,92.00
2019-03-30T06:16:28.391Z,92.50
2019-03-30T06:18:56.818Z,92.20
2019-03-30T06:21:25.266Z,92.30
2019-03-30T06:23:53.782Z,92.40
2019-03-30T06:26:22.359Z,92.50
2019-03-30T06:28:50.827Z,92.40
2019-03-30T06:31:19.261Z,92.40
2019-03-30T06:33:47.706Z,92.50
2019-03-30T06:36:16.148Z,92.70
2019-03-30T06:38:44.649Z,92.70
2019-03-30T06:41:13.101Z,92.60
2019-03-30T06:43:41.523Z,92.70
2019-03-30T06:46:09.958Z,93.10
2019-03-30T06:48:38.398Z,92.70
2019-03-30T06:51:06.857Z,92.70
2019-03-30T06:53:35.375Z,92.70
2019-03-30T06:56:05.930Z,93.10
2019-03-30T06:58:34.366Z,92.90
2019-03-30T07:01:02.825Z,92.90
2019-03-30T07:03:31.281Z,92.90
2019-03-30T07:06:01.091Z,93.00
2019-03-30T07:08:32.461Z,92.90
2019-03-30T07:11:05.461Z,93.10
2019-03-30T07:13:36.097Z,93.30
2019-03-30T07:16:04.687Z,93.30
2019-03-30T07:18:34.184Z,93.10
2019-03-30T07:21:04.645Z,93.20
2019-03-30T07:23:33.081Z,93.00
2019-03-30T07:26:01.536Z,93.10
2019-03-30T07:28:30.009Z,93.40
2019-03-30T07:30:58.443Z,93.20
2019-03-30T07:33:26.873Z,93.20
2019-03-30T07:35:55.324Z,93.30
2019-03-30T07:38:23.765Z,93.20
2019-03-30T07:40:52.198Z,93.20
2019-03-30T07:43:20.685Z,93.20
2019-03-30T07:45:49.203Z,93.20
2019-03-30T07:48:17.639Z,93.10
2019-03-30T07:50:46.144Z,92.90
2019-03-30T07:53:26.341Z,92.60
2019-03-30T07:55:46.301Z,92.60
2019-03-30T07:58:14.721Z,92.10
2019-03-30T08:00:43.178Z,92.10
2019-03-30T08:03:11.610Z,91.80
2019-03-30T08:05:40.108Z,91.70
2019-03-30T08:08:14.305Z,91.70
2019-03-30T08:10:42.786Z,91.60
2019-03-30T08:13:11.303Z,91.50
2019-03-30T08:15:48.169Z,91.40
2019-03-30T08:18:16.682Z,91.10
2019-03-30T08:20:45.110Z,91.30
2019-03-30T08:23:13.568Z,91.20
2019-03-30T08:25:42.027Z,90.40
2019-03-30T08:28:10.681Z,90.60
2019-03-30T08:30:39.209Z,89.50
2019-03-30T08:33:07.734Z,87.90
2019-03-30T08:35:36.240Z,86.60
2019-03-30T08:38:04.757Z,85.60
2019-03-30T08:40:33.266Z,84.90
2019-03-30T08:43:01.718Z,84.70
2019-03-30T08:45:30.179Z,83.10
2019-03-30T08:47:58.707Z,83.90
2019-03-30T08:50:28.496Z,84.30
2019-03-30T08:52:56.921Z,82.50
2019-03-30T08:55:25.367Z,80.60
2019-03-30T08:57:53.820Z,80.20
2019-03-30T09:00:34.052Z,80.50
2019-03-30T09:03:02.496Z,79.50
2019-03-30T09:05:30.947Z,79.30
2019-03-30T09:07:59.421Z,80.00
2019-03-30T09:10:27.865Z,81.30
2019-03-30T09:12:56.338Z,79.00
2019-03-30T09:15:24.785Z,77.10
2019-03-30T09:17:53.214Z,77.70
2019-03-30T09:20:21.663Z,79.10
2019-03-30T09:22:50.179Z,79.10
2019-03-30T09:25:18.627Z,79.00
2019-03-30T09:27:47.172Z,77.90
2019-03-30T09:30:18.261Z,77.70
2019-03-30T09:32:46.840Z,79.00
2019-03-30T09:35:15.270Z,77.50
2019-03-30T09:37:43.715Z,78.10
2019-03-30T09:40:13.310Z,76.40
2019-03-30T09:42:41.756Z,75.20
2019-03-30T09:45:10.643Z,73.90
2019-03-30T09:47:39.086Z,74.90
2019-03-30T09:50:08.339Z,74.50
2019-03-30T09:52:36.811Z,74.50
2019-03-30T09:55:06.892Z,74.30
2019-03-30T09:57:35.349Z,74.20
2019-03-30T10:00:07.252Z,73.60
2019-03-30T10:02:35.766Z,74.20
2019-03-30T10:05:04.449Z,72.40
2019-03-30T10:07:32.894Z,73.60
2019-03-30T10:10:01.323Z,73.70
2019-03-30T10:12:29.775Z,74.50
2019-03-30T10:14:58.210Z,72.80
2019-03-30T10:17:26.713Z,74.10
2019-03-30T10:20:04.176Z,72.10
2019-03-30T10:22:27.027Z,72.10
2019-03-30T10:24:58.307Z,71.80
2019-03-30T10:27:25.629Z,71.60
2019-03-30T10:29:54.062Z,71.80
2019-03-30T10:32:22.598Z,72.80
2019-03-30T10:34:51.076Z,71.90
2019-03-30T10:37:19.586Z,68.90
2019-03-30T10:39:48.020Z,67.90
2019-03-30T10:42:16.454Z,70.70
2019-03-30T10:44:45.208Z,73.10
2019-03-30T10:47:13.634Z,69.90
2019-03-30T10:49:42.101Z,69.90
2019-03-30T10:52:10.616Z,70.70
2019-03-30T10:54:51.960Z,69.80
2019-03-30T10:57:09.291Z,68.70
2019-03-30T10:59:37.727Z,69.30
2019-03-30T11:02:07.706Z,68.10
2019-03-30T11:04:37.603Z,67.80
2019-03-30T11:07:07.268Z,69.00
2019-03-30T11:09:35.769Z,67.20
2019-03-30T11:12:05.376Z,66.90
2019-03-30T11:14:33.823Z,66.60
2019-03-30T11:17:02.273Z,68.30
2019-03-30T11:19:31.303Z,67.10
2019-03-30T11:22:02.988Z,67.60
2019-03-30T11:24:29.917Z,66.40
2019-03-30T11:26:58.371Z,65.70
2019-03-30T11:29:26.830Z,66.20
2019-03-30T11:31:55.276Z,66.30
2019-03-30T11:34:23.739Z,66.40
2019-03-30T11:36:52.312Z,66.60
2019-03-30T11:39:21.719Z,64.80
2019-03-30T11:41:50.223Z,64.40
2019-03-30T11:44:18.674Z,63.10
2019-03-30T11:46:47.102Z,60.30
2019-03-30T11:49:15.573Z,60.90
2019-03-30T11:51:44.015Z,63.10
2019-03-30T11:54:12.442Z,62.60
2019-03-30T11:56:40.895Z,64.40
2019-03-30T11:59:09.354Z,63.80
2019-03-30T12:01:37.800Z,60.90
2019-03-30T12:04:06.241Z,63.30
2019-03-30T12:06:34.689Z,59.20
2019-03-30T12:09:03.874Z,59.10
2019-03-30T12:11:32.336Z,59.30
2019-03-30T12:14:00.785Z,58.80
2019-03-30T12:16:29.217Z,60.30
2019-03-30T12:18:57.684Z,60.70
2019-03-30T12:21:26.162Z,59.60
2019-03-30T12:23:54.602Z,58.30
2019-03-30T12:26:23.125Z,57.40
2019-03-30T12:28:51.599Z,59.00
2019-03-30T12:31:20.049Z,59.60
2019-03-30T12:33:48.482Z,59.20
2019-03-30T12:36:16.941Z,60.00
2019-03-30T12:38:45.396Z,57.70
2019-03-30T12:41:13.835Z,58.20
2019-03-30T12:43:42.285Z,58.90
2019-03-30T12:46:10.763Z,58.50
2019-03-30T12:48:39.182Z,58.50
2019-03-30T12:51:07.632Z,57.90
2019-03-30T12:53:49.179Z,55.40
2019-03-30T12:56:08.833Z,55.20
2019-03-30T12:58:36.460Z,55.80
2019-03-30T13:01:04.973Z,54.90
2019-03-30T13:03:33.413Z,55.00
2019-03-30T13:06:01.872Z,54.60
2019-03-30T13:08:30.320Z,55.70
2019-03-30T13:10:59.867Z,54.40
2019-03-30T13:13:28.384Z,55.60
2019-03-30T13:15:56.833Z,53.50
2019-03-30T13:18:25.275Z,55.60
2019-03-30T13:20:53.738Z,55.50
2019-03-30T13:23:22.225Z,54.10
2019-03-30T13:26:02.867Z,55.00
2019-03-30T13:28:20.951Z,55.50
2019-03-30T13:30:49.489Z,55.90
2019-03-30T13:33:18.024Z,56.60
2019-03-30T13:35:49.629Z,57.00
2019-03-30T13:38:20.602Z,56.60
2019-03-30T13:40:48.250Z,55.50
2019-03-30T13:43:16.683Z,55.50
2019-03-30T13:45:45.151Z,55.40
2019-03-30T13:48:13.574Z,54.10
2019-03-30T13:50:42.033Z,53.40
2019-03-30T13:53:10.468Z,53.30
2019-03-30T13:55:38.904Z,52.80
2019-03-30T13:58:07.357Z,53.00
2019-03-30T14:00:35.847Z,54.10
2019-03-30T14:03:04.609Z,54.80
2019-03-30T14:05:33.075Z,55.20
2019-03-30T14:08:01.528Z,55.70
2019-03-30T14:10:29.958Z,54.80
2019-03-30T14:12:58.413Z,55.70
2019-03-30T14:15:26.868Z,54.40
2019-03-30T14:17:55.302Z,56.60
2019-03-30T14:20:23.751Z,55.50
2019-03-30T14:22:52.201Z,55.30
2019-03-30T14:25:20.635Z,55.90
2019-03-30T14:27:49.098Z,55.60
2019-03-30T14:30:17.925Z,56.50
2019-03-30T14:32:46.358Z,56.90
2019-03-30T14:35:14.789Z,56.60
2019-03-30T14:37:43.339Z,55.50
2019-03-30T14:40:12.119Z,52.70
2019-03-30T14:42:40.569Z,52.90
2019-03-30T14:45:10.676Z,53.70
2019-03-30T14:47:39.116Z,53.40
2019-03-30T14:50:08.959Z,53.30
2019-03-30T14:52:37.401Z,52.40
2019-03-30T14:55:08.046Z,53.10
2019-03-30T14:57:36.579Z,52.50
2019-03-30T15:00:08.686Z,52.70
2019-03-30T15:02:37.143Z,52.30
2019-03-30T15:05:08.261Z,52.40
2019-03-30T15:07:36.783Z,52.00
2019-03-30T15:10:09.267Z,51.00
2019-03-30T15:12:38.333Z,52.00
2019-03-30T15:15:10.905Z,51.70
2019-03-30T15:17:40.890Z,51.20
2019-03-30T15:20:10.658Z,51.60
2019-03-30T15:22:39.143Z,51.90
2019-03-30T15:25:09.403Z,49.90
2019-03-30T15:27:37.844Z,50.70
2019-03-30T15:30:07.741Z,50.30
2019-03-30T15:32:36.170Z,50.70
2019-03-30T15:35:06.932Z,50.30
2019-03-30T15:37:35.426Z,51.20
2019-03-30T15:40:05.235Z,51.90
2019-03-30T15:42:33.820Z,51.20
2019-03-30T15:45:02.253Z,51.10
2019-03-30T15:47:30.694Z,50.00
2019-03-30T15:49:59.228Z,49.60
2019-03-30T15:52:27.681Z,50.00
2019-03-30T15:54:56.123Z,50.20
2019-03-30T15:57:25.438Z,50.20
2019-03-30T15:59:54.066Z,49.40
2019-03-30T16:02:23.046Z,49.20
2019-03-30T16:04:51.585Z,50.10
2019-03-30T16:07:20.029Z,49.30
2019-03-30T16:09:48.454Z,48.80
2019-03-30T16:12:16.910Z,49.30
2019-03-30T16:14:45.357Z,49.30
2019-03-30T16:17:14.960Z,49.30
2019-03-30T16:19:43.728Z,49.50
2019-03-30T16:22:12.185Z,49.50
2019-03-30T16:24:40.651Z,49.90
2019-03-30T16:27:09.172Z,48.60
2019-03-30T16:29:37.652Z,49.50
2019-03-30T16:32:06.093Z,50.10
2019-03-30T16:34:34.548Z,50.00
2019-03-30T16:37:02.988Z,50.90
2019-03-30T16:39:34.585Z,50.30
2019-03-30T16:42:01.605Z,51.60
2019-03-30T16:44:30.046Z,50.40
2019-03-30T16:46:58.509Z,52.20
2019-03-30T16:49:26.942Z,51.20
2019-03-30T16:51:55.412Z,51.20
2019-03-30T16:54:24.240Z,51.90
2019-03-30T16:56:52.694Z,52.10
2019-03-30T16:59:21.118Z,50.60
2019-03-30T17:01:49.550Z,50.50
2019-03-30T17:04:18.021Z,51.10
2019-03-30T17:06:46.466Z,51.80
2019-03-30T17:09:14.894Z,53.20
2019-03-30T17:11:43.402Z,55.60
2019-03-30T17:14:11.848Z,59.70
2019-03-30T17:16:40.299Z,63.70
2019-03-30T17:19:08.765Z,67.30
2019-03-30T17:21:37.385Z,69.30
2019-03-30T17:24:05.969Z,71.30
2019-03-30T17:26:36.382Z,72.70
2019-03-30T17:29:04.978Z,73.50
2019-03-30T17:31:33.423Z,73.70
2019-03-30T17:34:01.868Z,73.80
2019-03-30T17:36:30.317Z,73.10
2019-03-30T17:38:58.774Z,73.10
2019-03-30T17:41:27.226Z,72.70
2019-03-30T17:43:55.919Z,71.90
2019-03-30T17:46:24.548Z,72.90
2019-03-30T17:48:53.061Z,72.70
2019-03-30T17:51:21.932Z,72.20
2019-03-30T17:53:50.589Z,72.10
2019-03-30T17:56:19.418Z,71.80
2019-03-30T17:58:49.415Z,71.10
2019-03-30T18:01:18.941Z,71.10
2019-03-30T18:03:47.444Z,71.40
2019-03-30T18:06:16.212Z,71.30
2019-03-30T18:08:45.240Z,71.20
2019-03-30T18:11:15.125Z,69.40
2019-03-30T18:13:46.106Z,70.90
2019-03-30T18:16:14.727Z,70.20
2019-03-30T18:18:43.733Z,69.50
2019-03-30T18:21:15.115Z,70.20
2019-03-30T18:23:47.344Z,69.70
2019-03-30T18:26:14.958Z,68.80
2019-03-30T18:28:44.815Z,68.10
2019-03-30T18:31:15.143Z,69.10
2019-03-30T18:33:44.921Z,69.10
2019-03-30T18:36:26.282Z,68.90
2019-03-30T18:39:09.419Z,69.30
2019-03-30T18:41:32.304Z,70.40
2019-03-30T18:44:02.374Z,70.20
2019-03-30T18:46:31.342Z,70.60
2019-03-30T18:48:59.943Z,70.20
2019-03-30T18:51:28.934Z,70.80
2019-03-30T18:53:57.485Z,71.10
2019-03-30T18:56:27.923Z,70.70
2019-03-30T18:58:56.307Z,71.30
2019-03-30T19:01:24.957Z,71.50
2019-03-30T19:03:53.507Z,71.70
2019-03-30T19:06:22.047Z,72.20
2019-03-30T19:08:50.756Z,71.70
2019-03-30T19:11:19.483Z,72.20
2019-03-30T19:13:56.209Z,73.50
2019-03-30T19:16:24.658Z,73.30
2019-03-30T19:18:53.095Z,73.90
2019-03-30T19:21:21.571Z,74.10
2019-03-30T19:23:49.998Z,73.80
2019-03-30T19:26:18.455Z,74.00
2019-03-30T19:28:56.034Z,74.30
2019-03-30T19:31:17.075Z,74.30
2019-03-30T19:33:45.600Z,75.50
2019-03-30T19:36:14.051Z,75.50
2019-03-30T19:38:42.500Z,76.90
2019-03-30T19:41:10.944Z,76.60
2019-03-30T19:43:39.481Z,77.30
2019-03-30T19:46:08.893Z,78.70
2019-03-30T19:48:37.417Z,79.70
2019-03-30T19:51:06.020Z,79.60
2019-03-30T19:53:34.483Z,79.90
2019-03-30T19:56:02.949Z,81.50
2019-03-30T19:58:31.464Z,81.60
2019-03-30T20:00:59.919Z,82.00
2019-03-30T20:03:28.346Z,82.20
2019-03-30T20:05:56.810Z,82.50
2019-03-30T20:08:25.323Z,81.90
2019-03-30T20:10:53.773Z,82.20
2019-03-30T20:13:22.220Z,82.10
2019-03-30T20:15:50.670Z,83.10
2019-03-30T20:18:19.136Z,83.80
2019-03-30T20:20:47.595Z,84.40
2019-03-30T20:23:16.105Z,84.70
2019-03-30T20:25:44.534Z,85.10
2019-03-30T20:28:12.996Z,85.80
2019-03-30T20:30:41.435Z,85.60
2019-03-30T20:33:09.926Z,85.60
2019-03-30T20:35:38.460Z,85.80
2019-03-30T20:38:06.907Z,85.90
2019-03-30T20:40:54.686Z,86.00
2019-03-30T20:43:23.137Z,86.40
2019-03-30T20:45:51.583Z,86.60
2019-03-30T20:48:20.098Z,86.60
2019-03-30T20:50:48.539Z,86.40
2019-03-30T20:53:17.020Z,86.30
2019-03-30T20:55:45.450Z,87.20
2019-03-30T20:58:13.886Z,87.10
2019-03-30T21:00:42.334Z,87.40
2019-03-30T21:03:10.808Z,86.50
2019-03-30T21:05:39.243Z,86.80
2019-03-30T21:08:07.677Z,86.10
2019-03-30T21:10:36.177Z,87.30
2019-03-30T21:13:04.675Z,87.60
2019-03-30T21:15:33.131Z,88.30
2019-03-30T21:18:01.565Z,88.70
2019-03-30T21:20:30.002Z,89.90
2019-03-30T21:22:58.448Z,89.70
2019-03-30T21:25:26.893Z,90.00
2019-03-30T21:27:55.344Z,90.20
2019-03-30T21:30:23.856Z,90.30
2019-03-30T21:32:52.304Z,90.50
2019-03-30T21:35:20.812Z,90.80
2019-03-30T21:37:49.269Z,91.10
2019-03-30T21:40:17.729Z,91.00
2019-03-30T21:42:46.172Z,90.70
2019-03-30T21:45:33.984Z,91.00
2019-03-30T21:48:02.477Z,91.20
2019-03-30T21:50:30.937Z,91.60
2019-03-30T21:52:59.381Z,92.10
2019-03-30T21:55:27.938Z,92.30
2019-03-30T21:57:56.449Z,92.40
2019-03-30T22:00:35.932Z,92.50
2019-03-30T22:03:05.386Z,92.60
2019-03-30T22:05:35.374Z,92.70
2019-03-30T22:08:05.180Z,92.30
2019-03-30T22:10:33.637Z,92.30
2019-03-30T22:13:02.166Z,92.00
2019-03-30T22:15:30.670Z,92.20
2019-03-30T22:17:59.111Z,92.30
2019-03-30T22:20:27.562Z,92.00
2019-03-30T22:22:56.004Z,91.70
2019-03-30T22:25:24.464Z,91.80
2019-03-30T22:27:52.980Z,91.90
2019-03-30T22:30:25.091Z,92.10
2019-03-30T22:32:51.710Z,92.40
2019-03-30T22:35:20.162Z,92.10
2019-03-30T22:37:48.582Z,91.90
2019-03-30T22:40:17.105Z,92.30
2019-03-30T22:42:45.561Z,92.00
2019-03-30T22:45:14.465Z,91.70
2019-03-30T22:47:42.922Z,92.30
2019-03-30T22:50:12.004Z,92.30
2019-03-30T22:52:40.467Z,92.20
2019-03-30T22:55:09.039Z,92.50
2019-03-30T22:57:37.477Z,93.10
2019-03-30T23:00:08.295Z,93.20
2019-03-30T23:02:56.062Z,93.30
2019-03-30T23:05:24.508Z,93.30
2019-03-30T23:07:52.969Z,93.40
2019-03-30T23:10:21.410Z,94.00
2019-03-30T23:12:49.861Z,94.20
2019-03-30T23:15:18.282Z,94.50
2019-03-30T23:17:46.738Z,94.80
2019-03-30T23:20:15.353Z,94.80
2019-03-30T23:22:43.864Z,94.40
2019-03-30T23:25:12.366Z,94.30
2019-03-30T23:27:40.799Z,94.20
2019-03-30T23:30:09.481Z,94.60
2019-03-30T23:32:37.895Z,94.50
2019-03-30T23:35:07.098Z,94.50
2019-03-30T23:37:35.594Z,94.00
2019-03-30T23:40:06.223Z,93.90
2019-03-30T23:42:34.650Z,94.20
2019-03-30T23:45:03.178Z,94.30
2019-03-30T23:47:31.617Z,94.50
2019-03-30T23:50:00.330Z,94.30
2019-03-30T23:52:28.834Z,94.50
2019-03-30T23:54:57.259Z,94.40
2019-03-30T23:57:25.713Z,94.50
2019-03-30T23:59:54.134Z,94.60
